createdAt,value
2017-08-27T00:00:52.126Z,32.43
2017-08-27T00:03:19.628Z,32.50
2017-08-27T00:05:46.946Z,33.20
2017-08-27T00:08:14.337Z,35.53
2017-08-27T00:10:41.652Z,35.17
2017-08-27T00:13:09.291Z,34.97
2017-08-27T00:15:36.636Z,35.37
2017-08-27T00:18:03.987Z,36.27
2017-08-27T00:20:31.289Z,37.07
2017-08-27T00:22:58.640Z,36.40
2017-08-27T00:25:25.986Z,36.97
2017-08-27T00:27:53.358Z,37.50
2017-08-27T00:30:20.674Z,35.80
2017-08-27T00:32:48.031Z,35.30
2017-08-27T00:35:15.333Z,37.73
2017-08-27T00:37:43.636Z,36.60
2017-08-27T00:40:10.957Z,34.53
2017-08-27T00:42:38.313Z,34.77
2017-08-27T00:45:05.649Z,38.30
2017-08-27T00:47:33.002Z,34.33
2017-08-27T00:50:00.321Z,34.90
2017-08-27T00:52:27.977Z,33.87
2017-08-27T00:54:55.302Z,32.53
2017-08-27T00:57:22.699Z,30.50
2017-08-27T00:59:50.002Z,31.23
2017-08-27T01:02:17.343Z,30.10
2017-08-27T01:04:44.701Z,30.00
2017-08-27T01:07:11.999Z,31.10
2017-08-27T01:09:39.484Z,31.23
2017-08-27T01:12:06.812Z,30.93
2017-08-27T01:14:34.235Z,32.80
2017-08-27T01:17:01.600Z,33.43
2017-08-27T01:19:28.946Z,32.50
2017-08-27T01:21:56.269Z,34.50
2017-08-27T01:24:23.631Z,34.00
2017-08-27T01:26:50.945Z,37.13
2017-08-27T01:29:18.314Z,35.47
2017-08-27T01:31:45.646Z,37.20
2017-08-27T01:34:12.977Z,37.20
2017-08-27T01:36:40.345Z,37.80
2017-08-27T01:39:07.970Z,39.70
2017-08-27T01:41:35.301Z,38.43
2017-08-27T01:44:02.625Z,40.80
2017-08-27T01:46:29.938Z,38.80
2017-08-27T01:48:57.246Z,37.77
2017-08-27T01:51:24.590Z,37.33
2017-08-27T01:53:51.918Z,38.53
2017-08-27T01:56:19.271Z,38.20
2017-08-27T01:58:46.605Z,36.83
2017-08-27T02:01:14.254Z,38.37
2017-08-27T02:03:41.569Z,38.27
2017-08-27T02:06:08.894Z,39.70
2017-08-27T02:08:36.215Z,39.50
2017-08-27T02:11:03.538Z,38.67
2017-08-27T02:13:30.853Z,37.07
2017-08-27T02:15:58.197Z,37.40
2017-08-27T02:18:25.525Z,38.70
2017-08-27T02:20:52.865Z,37.47
2017-08-27T02:23:20.233Z,37.20
2017-08-27T02:25:47.566Z,38.97
2017-08-27T02:28:14.876Z,39.03
2017-08-27T02:30:42.212Z,38.77
2017-08-27T02:33:09.690Z,39.87
2017-08-27T02:35:37.022Z,40.00
2017-08-27T02:38:04.378Z,41.57
2017-08-27T02:40:31.695Z,40.83
2017-08-27T02:42:59.054Z,40.60
2017-08-27T02:45:26.378Z,41.37
2017-08-27T02:47:53.738Z,39.60
2017-08-27T02:50:21.054Z,40.23
2017-08-27T02:52:48.705Z,41.87
2017-08-27T02:55:16.046Z,41.90
2017-08-27T02:57:43.412Z,41.40
2017-08-27T03:00:10.717Z,38.00
2017-08-27T03:02:38.089Z,39.47
2017-08-27T03:05:05.432Z,39.00
2017-08-27T03:07:32.750Z,37.90
2017-08-27T03:10:00.128Z,38.63
2017-08-27T03:12:27.454Z,38.70
2017-08-27T03:14:54.811Z,38.17
2017-08-27T03:17:22.124Z,38.23
2017-08-27T03:19:49.476Z,37.00
2017-08-27T03:22:16.825Z,37.70
2017-08-27T03:24:44.370Z,40.53
2017-08-27T03:27:11.687Z,40.73
2017-08-27T03:29:39.063Z,39.10
2017-08-27T03:32:06.386Z,41.80
2017-08-27T03:34:33.722Z,42.37
2017-08-27T03:37:01.074Z,41.13
2017-08-27T03:39:28.431Z,43.10
2017-08-27T03:41:55.742Z,39.97
2017-08-27T03:44:23.099Z,41.67
2017-08-27T03:46:50.431Z,38.83
2017-08-27T03:49:17.813Z,38.30
2017-08-27T03:51:45.107Z,39.03
2017-08-27T03:54:12.424Z,39.40
2017-08-27T03:56:39.754Z,40.60
2017-08-27T03:59:07.072Z,39.30
2017-08-27T04:01:34.389Z,40.03
2017-08-27T04:04:01.716Z,37.83
2017-08-27T04:06:29.062Z,40.00
2017-08-27T04:08:56.388Z,39.60
2017-08-27T04:11:23.755Z,41.43
2017-08-27T04:13:51.090Z,39.90
2017-08-27T04:16:18.751Z,41.47
2017-08-27T04:18:46.069Z,40.50
2017-08-27T04:21:13.400Z,36.80
2017-08-27T04:23:40.741Z,39.57
2017-08-27T04:26:08.074Z,39.90
2017-08-27T04:28:35.389Z,38.50
2017-08-27T04:31:02.719Z,39.30
2017-08-27T04:33:30.043Z,38.07
2017-08-27T04:35:57.377Z,38.20
2017-08-27T04:38:24.693Z,37.83
2017-08-27T04:40:52.058Z,38.87
2017-08-27T04:43:19.375Z,37.23
2017-08-27T04:45:46.739Z,35.53
2017-08-27T04:48:14.055Z,36.97
2017-08-27T04:50:41.397Z,35.70
2017-08-27T04:53:08.740Z,37.27
2017-08-27T04:55:36.097Z,35.13
2017-08-27T04:58:03.436Z,35.77
2017-08-27T05:00:30.768Z,37.03
2017-08-27T05:02:58.099Z,35.63
2017-08-27T05:05:25.457Z,35.90
2017-08-27T05:07:52.903Z,37.47
2017-08-27T05:10:20.229Z,39.63
2017-08-27T05:12:47.581Z,39.13
2017-08-27T05:15:14.924Z,39.37
2017-08-27T05:17:42.265Z,39.10
2017-08-27T05:20:09.572Z,38.00
2017-08-27T05:22:36.906Z,36.03
2017-08-27T05:25:04.216Z,37.83
2017-08-27T05:27:31.546Z,37.17
2017-08-27T05:29:58.869Z,34.77
2017-08-27T05:32:26.216Z,34.20
2017-08-27T05:34:53.570Z,33.03
2017-08-27T05:37:20.915Z,32.90
2017-08-27T05:39:48.231Z,32.10
2017-08-27T05:42:15.614Z,34.23
2017-08-27T05:44:42.917Z,32.00
2017-08-27T05:47:10.258Z,30.60
2017-08-27T05:49:37.613Z,31.03
2017-08-27T05:52:04.950Z,29.50
2017-08-27T05:54:32.270Z,29.73
2017-08-27T05:56:59.662Z,30.07
2017-08-27T05:59:26.983Z,28.77
2017-08-27T06:01:54.289Z,28.33
2017-08-27T06:04:21.644Z,28.23
2017-08-27T06:06:48.986Z,26.10
2017-08-27T06:09:16.363Z,27.23
2017-08-27T06:11:43.670Z,26.80
2017-08-27T06:14:11.008Z,24.57
2017-08-27T06:16:38.355Z,26.10
2017-08-27T06:19:05.697Z,24.50
2017-08-27T06:21:33.039Z,23.50
2017-08-27T06:24:00.367Z,22.90
2017-08-27T06:26:27.697Z,24.17
2017-08-27T06:28:55.070Z,24.47
2017-08-27T06:31:22.385Z,25.70
2017-08-27T06:33:49.737Z,25.23
2017-08-27T06:36:17.063Z,27.03
2017-08-27T06:38:44.626Z,27.43
2017-08-27T06:41:11.973Z,28.33
2017-08-27T06:43:39.321Z,27.30
2017-08-27T06:46:06.625Z,27.53
2017-08-27T06:48:34.011Z,29.43
2017-08-27T06:51:01.335Z,28.27
2017-08-27T06:53:28.683Z,29.93
2017-08-27T06:55:56.004Z,30.43
2017-08-27T06:58:23.307Z,30.47
2017-08-27T07:00:50.630Z,30.17
2017-08-27T07:03:17.945Z,31.30
2017-08-27T07:05:45.290Z,31.77
2017-08-27T07:08:12.635Z,31.07
2017-08-27T07:10:39.957Z,29.83
2017-08-27T07:13:07.291Z,29.30
2017-08-27T07:15:34.637Z,28.03
2017-08-27T07:18:01.973Z,27.83
2017-08-27T07:20:29.333Z,26.53
2017-08-27T07:22:57.630Z,27.30
2017-08-27T07:25:24.962Z,26.63
2017-08-27T07:27:52.293Z,25.50
2017-08-27T07:30:19.666Z,25.87
2017-08-27T07:32:47.000Z,24.90
2017-08-27T07:35:14.345Z,24.80
2017-08-27T07:37:41.655Z,22.90
2017-08-27T07:40:08.985Z,24.03
2017-08-27T07:42:36.313Z,22.73
2017-08-27T07:45:03.814Z,22.00
2017-08-27T07:47:31.185Z,22.40
2017-08-27T07:49:58.559Z,19.20
2017-08-27T07:52:25.887Z,20.60
2017-08-27T07:54:53.239Z,18.87
2017-08-27T07:57:20.698Z,18.23
2017-08-27T07:59:48.100Z,19.20
2017-08-27T08:02:15.414Z,19.33
2017-08-27T08:04:42.724Z,20.00
2017-08-27T08:07:10.041Z,17.37
2017-08-27T08:09:37.480Z,18.43
2017-08-27T08:12:04.806Z,17.90
2017-08-27T08:14:32.115Z,19.17
2017-08-27T08:16:59.627Z,17.30
2017-08-27T08:19:27.383Z,17.70
2017-08-27T08:21:54.714Z,16.20
2017-08-27T08:24:22.041Z,18.00
2017-08-27T08:26:49.727Z,15.50
2017-08-27T08:29:17.096Z,15.70
2017-08-27T08:31:44.807Z,14.73
2017-08-27T08:34:12.121Z,15.27
2017-08-27T08:36:39.499Z,16.13
2017-08-27T08:39:06.834Z,15.77
2017-08-27T08:41:34.158Z,14.20
2017-08-27T08:44:01.508Z,15.63
2017-08-27T08:46:28.808Z,15.10
2017-08-27T08:48:56.157Z,14.17
2017-08-27T08:51:23.490Z,13.87
2017-08-27T08:53:50.870Z,15.03
2017-08-27T08:56:18.160Z,13.87
2017-08-27T08:58:45.492Z,12.77
2017-08-27T09:01:12.793Z,12.97
2017-08-27T09:03:40.126Z,11.33
2017-08-27T09:06:07.438Z,11.57
2017-08-27T09:08:34.806Z,11.20
2017-08-27T09:11:02.125Z,12.30
2017-08-27T09:13:29.693Z,10.73
2017-08-27T09:15:57.019Z,10.87
2017-08-27T09:18:24.362Z,10.30
2017-08-27T09:20:51.707Z,11.40
2017-08-27T09:23:19.106Z,11.40
2017-08-27T09:25:46.446Z,10.77
2017-08-27T09:28:13.762Z,10.13
2017-08-27T09:30:41.082Z,10.53
2017-08-27T09:33:08.464Z,10.97
2017-08-27T09:35:35.813Z,10.90
2017-08-27T09:38:03.137Z,10.90
2017-08-27T09:40:30.482Z,10.07
2017-08-27T09:42:57.780Z,10.30
2017-08-27T09:45:25.163Z,12.97
2017-08-27T09:47:52.471Z,10.30
2017-08-27T09:50:19.802Z,10.63
2017-08-27T09:52:47.133Z,11.80
2017-08-27T09:55:15.110Z,11.00
2017-08-27T09:57:42.732Z,11.00
2017-08-27T10:00:10.096Z,10.73
2017-08-27T10:02:37.458Z,10.07
2017-08-27T10:05:04.806Z,10.70
2017-08-27T10:07:32.133Z,10.20
2017-08-27T10:09:59.463Z,10.13
2017-08-27T10:12:26.791Z,9.63
2017-08-27T10:14:54.135Z,9.77
2017-08-27T10:17:21.497Z,9.10
2017-08-27T10:19:48.827Z,8.80
2017-08-27T10:22:16.174Z,8.00
2017-08-27T10:24:43.481Z,8.90
2017-08-27T10:27:10.793Z,7.97
2017-08-27T10:29:38.111Z,7.80
2017-08-27T10:32:05.426Z,8.13
2017-08-27T10:34:32.771Z,7.63
2017-08-27T10:37:00.119Z,7.97
2017-08-27T10:39:27.454Z,8.40
2017-08-27T10:41:54.792Z,8.20
2017-08-27T10:44:22.145Z,9.13
2017-08-27T10:46:49.481Z,8.77
2017-08-27T10:49:16.798Z,8.10
2017-08-27T10:51:44.105Z,7.77
2017-08-27T10:54:11.403Z,7.03
2017-08-27T10:56:39.057Z,7.70
2017-08-27T10:59:06.357Z,6.30
2017-08-27T11:01:33.662Z,6.77
2017-08-27T11:04:00.975Z,7.20
2017-08-27T11:06:28.281Z,5.90
2017-08-27T11:08:55.640Z,6.30
2017-08-27T11:11:22.986Z,6.40
2017-08-27T11:13:50.331Z,5.47
2017-08-27T11:16:17.662Z,6.00
2017-08-27T11:18:44.965Z,5.87
2017-08-27T11:21:12.311Z,6.00
2017-08-27T11:23:39.626Z,5.20
2017-08-27T11:26:06.930Z,6.07
2017-08-27T11:28:34.282Z,6.20
2017-08-27T11:31:01.608Z,5.47
2017-08-27T11:33:28.958Z,5.30
2017-08-27T11:35:56.286Z,5.30
2017-08-27T11:38:23.631Z,5.60
2017-08-27T11:40:50.965Z,5.70
2017-08-27T11:43:18.272Z,5.40
2017-08-27T11:45:45.579Z,4.80
2017-08-27T11:48:12.922Z,5.73
2017-08-27T11:50:41.173Z,5.40
2017-08-27T11:53:08.477Z,5.30
2017-08-27T11:55:35.799Z,5.20
2017-08-27T11:58:03.107Z,5.23
2017-08-27T12:00:30.437Z,6.47
2017-08-27T12:02:57.746Z,5.37
2017-08-27T12:05:25.077Z,5.00
2017-08-27T12:07:52.370Z,4.00
2017-08-27T12:10:19.685Z,4.23
2017-08-27T12:12:47.040Z,4.60
2017-08-27T12:15:14.365Z,4.30
2017-08-27T12:17:41.691Z,3.57
2017-08-27T12:20:09.004Z,4.07
2017-08-27T12:22:36.302Z,3.87
2017-08-27T12:25:03.625Z,4.37
2017-08-27T12:27:30.957Z,4.50
2017-08-27T12:29:58.279Z,4.33
2017-08-27T12:32:25.573Z,4.90
2017-08-27T12:34:52.890Z,4.87
2017-08-27T12:37:20.221Z,4.37
2017-08-27T12:39:47.565Z,4.00
2017-08-27T12:42:14.906Z,3.80
2017-08-27T12:44:42.245Z,3.90
2017-08-27T12:47:09.566Z,4.10
2017-08-27T12:49:36.870Z,4.50
2017-08-27T12:52:04.246Z,4.17
2017-08-27T12:54:31.557Z,3.87
2017-08-27T12:56:58.855Z,3.93
2017-08-27T12:59:26.172Z,3.90
2017-08-27T13:01:53.486Z,3.80
2017-08-27T13:04:20.791Z,4.17
2017-08-27T13:06:48.119Z,4.13
2017-08-27T13:09:15.456Z,4.27
2017-08-27T13:11:42.761Z,4.17
2017-08-27T13:14:10.062Z,3.63
2017-08-27T13:16:37.915Z,3.63
2017-08-27T13:19:05.236Z,3.90
2017-08-27T13:21:32.534Z,4.20
2017-08-27T13:23:59.830Z,4.40
2017-08-27T13:26:27.161Z,4.20
2017-08-27T13:28:54.487Z,4.33
2017-08-27T13:31:21.859Z,4.10
2017-08-27T13:33:49.190Z,4.17
2017-08-27T13:36:16.487Z,3.87
2017-08-27T13:38:43.824Z,3.80
2017-08-27T13:41:11.123Z,3.50
2017-08-27T13:43:38.455Z,3.63
2017-08-27T13:46:05.765Z,3.70
2017-08-27T13:48:33.100Z,3.50
2017-08-27T13:51:00.411Z,3.60
2017-08-27T13:53:27.721Z,3.20
2017-08-27T13:55:55.028Z,4.07
2017-08-27T13:58:22.351Z,3.33
2017-08-27T14:00:49.667Z,3.40
2017-08-27T14:03:17.268Z,3.37
2017-08-27T14:05:44.618Z,3.20
2017-08-27T14:08:12.017Z,3.10
2017-08-27T14:10:39.317Z,3.23
2017-08-27T14:13:06.673Z,3.10
2017-08-27T14:15:33.968Z,3.30
2017-08-27T14:18:01.286Z,3.17
2017-08-27T14:20:28.590Z,2.93
2017-08-27T14:22:55.926Z,2.80
2017-08-27T14:25:23.234Z,2.70
2017-08-27T14:27:50.555Z,2.17
2017-08-27T14:30:17.848Z,2.60
2017-08-27T14:32:45.207Z,2.33
2017-08-27T14:35:12.591Z,2.70
2017-08-27T14:37:40.076Z,2.53
2017-08-27T14:40:07.685Z,2.40
2017-08-27T14:42:34.982Z,2.63
2017-08-27T14:45:02.300Z,2.53
2017-08-27T14:47:29.620Z,2.30
2017-08-27T14:49:56.974Z,2.50
2017-08-27T14:52:24.287Z,2.33
2017-08-27T14:54:51.632Z,2.63
2017-08-27T14:57:18.939Z,2.70
2017-08-27T14:59:46.267Z,3.00
2017-08-27T15:02:13.580Z,2.40
2017-08-27T15:04:40.910Z,2.30
2017-08-27T15:07:08.240Z,2.70
2017-08-27T15:09:35.549Z,2.30
2017-08-27T15:12:02.859Z,2.40
2017-08-27T15:14:30.168Z,2.27
2017-08-27T15:16:57.814Z,2.30
2017-08-27T15:19:25.121Z,2.30
2017-08-27T15:21:52.479Z,2.50
2017-08-27T15:24:19.765Z,2.60
2017-08-27T15:26:47.087Z,2.50
2017-08-27T15:29:14.463Z,2.50
2017-08-27T15:31:41.792Z,2.57
2017-08-27T15:34:09.103Z,2.40
2017-08-27T15:36:36.422Z,2.20
2017-08-27T15:39:03.735Z,2.20
2017-08-27T15:41:31.064Z,2.40
2017-08-27T15:43:58.354Z,2.50
2017-08-27T15:46:25.716Z,2.67
2017-08-27T15:48:53.046Z,2.30
2017-08-27T15:51:20.362Z,2.27
2017-08-27T15:53:47.682Z,2.00
2017-08-27T15:56:15.006Z,2.20
2017-08-27T15:58:42.506Z,2.10
2017-08-27T16:01:09.858Z,2.40
2017-08-27T16:03:37.197Z,2.23
2017-08-27T16:06:04.548Z,2.53
2017-08-27T16:08:31.897Z,2.50
2017-08-27T16:10:59.222Z,2.30
2017-08-27T16:13:26.688Z,2.50
2017-08-27T16:15:53.993Z,2.80
2017-08-27T16:18:21.304Z,2.50
2017-08-27T16:20:48.597Z,2.50
2017-08-27T16:23:15.941Z,2.33
2017-08-27T16:25:43.262Z,2.33
2017-08-27T16:28:10.586Z,2.80
2017-08-27T16:30:37.881Z,2.70
2017-08-27T16:33:05.226Z,2.50
2017-08-27T16:35:32.518Z,2.63
2017-08-27T16:37:59.851Z,2.47
2017-08-27T16:40:27.149Z,2.73
2017-08-27T16:42:54.477Z,2.67
2017-08-27T16:45:21.794Z,2.30
2017-08-27T16:47:49.134Z,2.57
2017-08-27T16:50:16.420Z,2.67
2017-08-27T16:52:43.725Z,3.20
2017-08-27T16:55:11.068Z,2.87
2017-08-27T16:57:38.403Z,2.40
2017-08-27T17:00:05.766Z,2.50
2017-08-27T17:02:33.174Z,2.50
2017-08-27T17:05:00.491Z,2.70
2017-08-27T17:07:27.795Z,2.60
2017-08-27T17:09:55.122Z,2.63
2017-08-27T17:12:22.473Z,2.70
2017-08-27T17:14:49.819Z,2.77
2017-08-27T17:17:17.126Z,2.93
2017-08-27T17:19:44.503Z,2.90
2017-08-27T17:22:11.816Z,2.93
2017-08-27T17:24:39.166Z,2.70
2017-08-27T17:27:06.481Z,3.27
2017-08-27T17:29:33.845Z,2.80
2017-08-27T17:32:01.169Z,3.10
2017-08-27T17:34:28.483Z,2.70
2017-08-27T17:36:55.783Z,2.83
2017-08-27T17:39:23.140Z,3.43
2017-08-27T17:41:50.466Z,3.20
2017-08-27T17:44:17.799Z,2.97
2017-08-27T17:46:45.110Z,3.03
2017-08-27T17:49:12.661Z,3.60
2017-08-27T17:51:39.975Z,3.37
2017-08-27T17:54:07.278Z,3.27
2017-08-27T17:56:35.532Z,3.43
2017-08-27T17:59:02.858Z,3.20
2017-08-27T18:01:30.216Z,3.20
2017-08-27T18:03:57.524Z,3.23
2017-08-27T18:06:24.840Z,3.30
2017-08-27T18:08:52.139Z,3.20
2017-08-27T18:11:19.457Z,3.57
2017-08-27T18:13:46.808Z,3.97
2017-08-27T18:16:14.150Z,3.70
2017-08-27T18:18:41.776Z,3.40
2017-08-27T18:21:09.099Z,3.73
2017-08-27T18:23:36.578Z,3.80
2017-08-27T18:26:03.930Z,3.57
2017-08-27T18:28:31.250Z,4.00
2017-08-27T18:30:58.545Z,3.80
2017-08-27T18:33:25.871Z,4.27
2017-08-27T18:35:53.465Z,3.97
2017-08-27T18:38:20.768Z,3.73
2017-08-27T18:40:48.100Z,3.67
2017-08-27T18:43:15.408Z,4.30
2017-08-27T18:45:42.733Z,4.20
2017-08-27T18:48:10.042Z,4.23
2017-08-27T18:50:37.350Z,4.83
2017-08-27T18:53:04.695Z,4.30
2017-08-27T18:55:31.989Z,4.20
2017-08-27T18:57:59.306Z,3.80
2017-08-27T19:00:26.606Z,3.73
2017-08-27T19:02:59.753Z,3.60
2017-08-27T19:05:27.054Z,3.50
2017-08-27T19:07:54.374Z,3.73
2017-08-27T19:10:21.674Z,3.77
2017-08-27T19:12:48.990Z,3.60
2017-08-27T19:15:16.296Z,3.60
2017-08-27T19:17:43.667Z,4.33
2017-08-27T19:20:10.967Z,3.83
2017-08-27T19:22:38.295Z,3.70
2017-08-27T19:25:05.933Z,3.67
2017-08-27T19:27:33.277Z,3.00
2017-08-27T19:30:00.615Z,3.60
2017-08-27T19:32:27.921Z,3.07
2017-08-27T19:34:55.236Z,3.40
2017-08-27T19:37:22.569Z,3.43
2017-08-27T19:39:49.862Z,2.90
2017-08-27T19:42:17.203Z,3.20
2017-08-27T19:44:44.488Z,3.00
2017-08-27T19:47:11.832Z,3.67
2017-08-27T19:49:39.234Z,3.07
2017-08-27T19:52:06.570Z,3.30
2017-08-27T19:54:33.876Z,3.30
2017-08-27T19:57:01.184Z,3.57
2017-08-27T19:59:28.553Z,3.60
2017-08-27T20:01:55.881Z,3.10
2017-08-27T20:04:23.215Z,3.53
2017-08-27T20:06:50.578Z,3.27
2017-08-27T20:09:17.915Z,3.80
2017-08-27T20:11:46.083Z,3.83
2017-08-27T20:14:13.384Z,3.70
2017-08-27T20:16:40.706Z,3.33
2017-08-27T20:19:08.270Z,3.90
2017-08-27T20:21:35.588Z,3.60
2017-08-27T20:24:02.915Z,3.77
2017-08-27T20:26:30.213Z,3.93
2017-08-27T20:28:57.521Z,3.80
2017-08-27T20:31:24.876Z,4.10
2017-08-27T20:33:52.196Z,3.70
2017-08-27T20:36:19.551Z,4.27
2017-08-27T20:38:46.854Z,4.10
2017-08-27T20:41:14.170Z,3.60
2017-08-27T20:43:41.490Z,4.37
2017-08-27T20:46:08.852Z,4.00
2017-08-27T20:48:36.194Z,4.63
2017-08-27T20:51:03.525Z,4.33
2017-08-27T20:53:30.851Z,3.60
2017-08-27T20:55:58.183Z,4.60
2017-08-27T20:58:25.488Z,4.20
2017-08-27T21:00:52.938Z,4.70
2017-08-27T21:03:20.218Z,5.00
2017-08-27T21:05:47.556Z,4.00
2017-08-27T21:08:14.944Z,4.80
2017-08-27T21:10:42.275Z,4.70
2017-08-27T21:13:09.559Z,4.77
2017-08-27T21:15:36.878Z,4.80
2017-08-27T21:18:04.166Z,4.43
2017-08-27T21:20:31.511Z,4.00
2017-08-27T21:22:58.814Z,5.10
2017-08-27T21:25:26.137Z,4.93
2017-08-27T21:27:53.437Z,4.60
2017-08-27T21:30:20.771Z,4.87
2017-08-27T21:32:48.442Z,4.30
2017-08-27T21:35:15.730Z,3.90
2017-08-27T21:37:43.032Z,4.07
2017-08-27T21:40:10.331Z,3.80
2017-08-27T21:42:37.646Z,3.93
2017-08-27T21:45:04.941Z,4.20
2017-08-27T21:47:32.261Z,3.83
2017-08-27T21:49:59.577Z,3.47
2017-08-27T21:52:26.911Z,3.73
2017-08-27T21:54:54.197Z,3.83
2017-08-27T21:57:21.513Z,3.70
2017-08-27T21:59:48.834Z,3.70
2017-08-27T22:02:16.161Z,3.13
2017-08-27T22:04:43.461Z,3.40
2017-08-27T22:07:10.785Z,3.37
2017-08-27T22:09:38.405Z,3.80
2017-08-27T22:12:05.724Z,3.57
2017-08-27T22:14:33.031Z,3.90
2017-08-27T22:17:00.332Z,3.60
2017-08-27T22:19:27.661Z,3.47
2017-08-27T22:21:54.949Z,3.30
2017-08-27T22:24:22.273Z,3.40
2017-08-27T22:26:49.877Z,3.60
2017-08-27T22:29:17.203Z,3.47
2017-08-27T22:31:44.501Z,3.67
2017-08-27T22:34:12.126Z,3.73
2017-08-27T22:36:39.467Z,3.37
2017-08-27T22:39:06.774Z,3.40
2017-08-27T22:41:34.079Z,3.77
2017-08-27T22:44:01.403Z,3.60
2017-08-27T22:46:28.730Z,3.23
2017-08-27T22:48:56.055Z,3.67
2017-08-27T22:51:23.354Z,3.57
2017-08-27T22:53:50.675Z,3.80
2017-08-27T22:56:18.004Z,3.60
2017-08-27T22:58:45.346Z,3.30
2017-08-27T23:01:12.675Z,3.77
2017-08-27T23:03:39.994Z,3.80
2017-08-27T23:06:07.299Z,3.70
2017-08-27T23:08:34.631Z,3.80
2017-08-27T23:11:01.931Z,3.90
2017-08-27T23:13:29.246Z,3.80
2017-08-27T23:15:56.539Z,4.30
2017-08-27T23:18:23.892Z,4.07
2017-08-27T23:20:51.202Z,4.17
2017-08-27T23:23:18.499Z,4.63
2017-08-27T23:25:45.808Z,5.30
2017-08-27T23:28:13.123Z,5.70
2017-08-27T23:30:40.420Z,6.53
2017-08-27T23:33:07.712Z,6.07
2017-08-27T23:35:35.465Z,6.47
2017-08-27T23:38:02.799Z,6.87
2017-08-27T23:40:30.107Z,5.70
2017-08-27T23:42:57.415Z,6.13
2017-08-27T23:45:24.733Z,5.30
2017-08-27T23:47:52.046Z,6.50
2017-08-27T23:50:19.371Z,6.37
2017-08-27T23:52:46.685Z,6.83
2017-08-27T23:55:13.984Z,6.30
2017-08-27T23:57:41.326Z,6.67
